createdAt,value
2022-12-06T00:02:10.437Z,39.47
2022-12-06T00:04:37.095Z,36.03
2022-12-06T00:07:03.583Z,37.30
2022-12-06T00:09:31.726Z,37.83
2022-12-06T00:11:59.324Z,36.22
2022-12-06T00:14:27.749Z,35.78
2022-12-06T00:16:54.464Z,32.78
2022-12-06T00:19:23.372Z,30.95
2022-12-06T00:21:49.835Z,32.00
2022-12-06T00:24:18.949Z,32.78
2022-12-06T00:26:47.373Z,33.08
2022-12-06T00:29:16.863Z,36.60
2022-12-06T00:31:43.628Z,33.42
2022-12-06T00:34:10.139Z,32.65
2022-12-06T00:36:39.146Z,33.13
2022-12-06T00:39:08.617Z,34.65
2022-12-06T00:41:35.510Z,34.53
2022-12-06T00:44:02.237Z,32.50
2022-12-06T00:46:30.811Z,33.10
2022-12-06T00:48:59.406Z,33.65
2022-12-06T00:51:28.633Z,35.60
2022-12-06T00:53:55.598Z,36.53
2022-12-06T00:56:22.409Z,32.05
2022-12-06T00:58:48.858Z,29.27
2022-12-06T01:01:19.221Z,31.05
2022-12-06T01:03:47.631Z,29.35
2022-12-06T01:06:15.866Z,30.02
2022-12-06T01:08:43.042Z,30.98
2022-12-06T01:11:10.490Z,31.55
2022-12-06T01:13:37.490Z,33.97
2022-12-06T01:16:08.905Z,30.35
2022-12-06T01:18:35.897Z,29.98
2022-12-06T01:21:06.904Z,32.58
2022-12-06T01:23:33.662Z,31.48
2022-12-06T01:26:00.160Z,31.42
2022-12-06T01:28:26.853Z,33.25
2022-12-06T01:30:53.577Z,38.17
2022-12-06T01:33:20.109Z,33.88
2022-12-06T01:35:46.643Z,30.58
2022-12-06T01:38:13.264Z,30.50
2022-12-06T01:40:42.006Z,33.25
2022-12-06T01:43:29.999Z,30.75
2022-12-06T01:45:58.318Z,29.25
2022-12-06T01:48:26.554Z,31.98
2022-12-06T01:50:56.263Z,30.95
2022-12-06T01:53:25.858Z,33.53
2022-12-06T01:55:53.604Z,34.22
2022-12-06T01:58:25.182Z,28.60
2022-12-06T02:03:22.784Z,29.55
2022-12-06T02:09:36.758Z,29.60
2022-12-06T02:12:03.443Z,30.00
2022-12-06T02:14:33.449Z,28.08
2022-12-06T02:17:17.907Z,29.30
2022-12-06T02:20:12.352Z,26.42
2022-12-06T02:23:17.835Z,29.83
2022-12-06T02:26:18.783Z,32.55
2022-12-06T02:29:46.649Z,21.45
2022-12-06T02:32:26.649Z,27.25
2022-12-06T02:35:09.305Z,25.65
2022-12-06T02:37:43.529Z,29.95
2022-12-06T02:40:15.614Z,30.08
2022-12-06T02:42:47.326Z,26.80
2022-12-06T02:45:21.221Z,29.20
2022-12-06T02:47:49.987Z,28.73
2022-12-06T02:50:28.104Z,27.20
2022-12-06T02:52:59.293Z,28.77
2022-12-06T02:55:27.394Z,27.90
2022-12-06T02:57:56.930Z,29.40
2022-12-06T03:00:35.615Z,30.73
2022-12-06T03:03:39.347Z,32.78
2022-12-06T03:06:21.220Z,33.90
2022-12-06T03:09:05.201Z,31.25
2022-12-06T03:11:50.061Z,32.33
2022-12-06T03:14:23.340Z,38.30
2022-12-06T03:17:05.831Z,36.42
2022-12-06T03:19:36.677Z,33.25
2022-12-06T03:22:16.271Z,34.20
2022-12-06T03:24:44.215Z,30.63
2022-12-06T03:27:15.590Z,29.73
2022-12-06T03:29:47.725Z,35.47
2022-12-06T03:32:17.527Z,36.60
2022-12-06T03:34:48.971Z,34.53
2022-12-06T03:37:21.432Z,35.85
2022-12-06T03:40:06.296Z,34.45
2022-12-06T03:42:33.454Z,36.13
2022-12-06T03:45:00.676Z,34.83
2022-12-06T03:47:37.147Z,39.97
2022-12-06T03:50:13.964Z,37.10
2022-12-06T03:52:40.620Z,39.05
2022-12-06T03:55:07.617Z,35.50
2022-12-06T03:57:34.809Z,43.90
2022-12-06T04:00:01.714Z,44.45
2022-12-06T04:02:28.253Z,39.20
2022-12-06T04:04:54.719Z,45.72
2022-12-06T04:07:21.511Z,44.03
2022-12-06T04:10:03.062Z,47.53
2022-12-06T04:12:50.260Z,44.97
2022-12-06T04:15:17.927Z,42.53
2022-12-06T04:18:03.093Z,45.80
2022-12-06T04:20:50.586Z,45.25
2022-12-06T04:23:18.633Z,38.63
2022-12-06T04:25:45.180Z,38.03
2022-12-06T04:28:30.296Z,45.50
2022-12-06T04:31:21.497Z,44.67
2022-12-06T04:34:07.279Z,35.08
2022-12-06T04:36:52.225Z,34.60
2022-12-06T04:39:21.059Z,31.63
2022-12-06T04:42:06.881Z,29.08
2022-12-06T04:44:33.446Z,25.55
2022-12-06T04:47:00.302Z,27.08
2022-12-06T04:49:26.906Z,27.88
2022-12-06T04:51:54.700Z,26.85
2022-12-06T04:54:22.187Z,20.92
2022-12-06T04:56:48.920Z,21.73
2022-12-06T04:59:15.576Z,26.42
2022-12-06T05:01:42.057Z,21.35
2022-12-06T05:04:08.898Z,21.30
2022-12-06T05:06:35.493Z,20.35
2022-12-06T05:09:03.212Z,24.23
2022-12-06T05:11:29.790Z,25.55
2022-12-06T05:13:56.438Z,23.10
2022-12-06T05:16:23.004Z,21.95
2022-12-06T05:18:49.679Z,19.63
2022-12-06T05:21:19.202Z,19.42
2022-12-06T05:23:46.519Z,16.75
2022-12-06T05:26:18.363Z,20.05
2022-12-06T05:28:47.517Z,21.25
2022-12-06T05:31:14.845Z,17.92
2022-12-06T05:33:41.579Z,16.67
2022-12-06T05:36:16.129Z,17.50
2022-12-06T05:38:45.797Z,21.35
2022-12-06T05:41:16.661Z,20.95
2022-12-06T05:43:43.174Z,18.65
2022-12-06T05:46:09.762Z,14.82
2022-12-06T05:48:36.229Z,18.15
2022-12-06T05:51:03.402Z,15.18
2022-12-06T05:53:30.303Z,16.30
2022-12-06T05:55:57.377Z,16.17
2022-12-06T05:58:24.582Z,13.57
2022-12-06T06:00:51.144Z,16.88
2022-12-06T06:03:18.519Z,14.52
2022-12-06T06:05:50.777Z,16.13
2022-12-06T06:08:18.318Z,15.10
2022-12-06T06:10:45.162Z,14.75
2022-12-06T06:13:11.703Z,14.73
2022-12-06T06:15:38.748Z,14.25
2022-12-06T06:18:05.438Z,15.90
2022-12-06T06:20:32.213Z,16.73
2022-12-06T06:22:58.719Z,17.08
2022-12-06T06:25:25.324Z,15.05
2022-12-06T06:27:51.768Z,15.27
2022-12-06T06:30:18.900Z,16.98
2022-12-06T06:32:45.693Z,17.23
2022-12-06T06:35:12.453Z,16.10
2022-12-06T06:37:38.988Z,14.98
2022-12-06T06:40:06.137Z,16.30
2022-12-06T06:42:32.844Z,13.38
2022-12-06T06:44:59.525Z,16.42
2022-12-06T06:47:26.119Z,22.73
2022-12-06T06:49:52.762Z,16.48
2022-12-06T06:52:20.028Z,16.05
2022-12-06T06:54:46.492Z,15.18
2022-12-06T06:57:17.803Z,18.10
2022-12-06T07:02:13.944Z,15.80
2022-12-06T07:04:41.222Z,17.00
2022-12-06T07:07:08.077Z,17.60
2022-12-06T07:09:38.143Z,18.63
2022-12-06T07:12:05.162Z,19.20
2022-12-06T07:14:31.900Z,21.42
2022-12-06T07:16:58.595Z,17.77
2022-12-06T07:19:25.512Z,20.88
2022-12-06T07:21:51.962Z,19.60
2022-12-06T07:24:18.501Z,18.58
2022-12-06T07:26:45.116Z,19.20
2022-12-06T07:29:11.753Z,17.77
2022-12-06T07:31:40.295Z,17.58
2022-12-06T07:34:07.261Z,22.38
2022-12-06T07:36:33.804Z,16.40
2022-12-06T07:39:00.925Z,18.17
2022-12-06T07:41:48.454Z,17.58
2022-12-06T07:44:35.040Z,17.88
2022-12-06T07:47:02.491Z,16.52
2022-12-06T07:49:29.459Z,18.83
2022-12-06T07:51:56.385Z,15.65
2022-12-06T07:54:24.359Z,15.25
2022-12-06T07:56:51.199Z,14.20
2022-12-06T07:59:17.861Z,15.98
2022-12-06T08:01:45.094Z,16.40
2022-12-06T08:04:12.240Z,17.88
2022-12-06T08:06:39.772Z,18.42
2022-12-06T08:09:07.192Z,16.88
2022-12-06T08:11:34.321Z,15.82
2022-12-06T08:14:00.864Z,13.65
2022-12-06T08:16:27.646Z,17.02
2022-12-06T08:18:55.394Z,15.18
2022-12-06T08:21:22.197Z,12.40
2022-12-06T08:23:48.769Z,12.43
2022-12-06T08:26:16.594Z,12.27
2022-12-06T08:28:43.542Z,15.05
2022-12-06T08:31:19.477Z,12.82
2022-12-06T08:33:46.902Z,13.18
2022-12-06T08:36:19.908Z,13.48
2022-12-06T08:38:47.600Z,14.27
2022-12-06T08:41:33.748Z,15.90
2022-12-06T08:44:02.038Z,20.50
2022-12-06T08:46:30.094Z,13.60
2022-12-06T08:48:57.122Z,17.02
2022-12-06T08:51:24.424Z,14.20
2022-12-06T08:53:55.523Z,16.83
2022-12-06T08:56:23.325Z,13.82
2022-12-06T08:58:50.382Z,16.60
2022-12-06T09:01:19.903Z,14.98
2022-12-06T09:03:46.848Z,14.10
2022-12-06T09:06:14.077Z,14.00
2022-12-06T09:08:41.136Z,14.57
2022-12-06T09:11:08.394Z,12.07
2022-12-06T09:13:36.988Z,12.27
2022-12-06T09:16:23.950Z,14.70
2022-12-06T09:18:54.462Z,14.18
2022-12-06T09:21:25.156Z,12.75
2022-12-06T09:23:55.706Z,10.60
2022-12-06T09:26:22.290Z,12.43
2022-12-06T09:28:50.884Z,12.32
2022-12-06T09:31:19.180Z,11.02
2022-12-06T09:33:46.966Z,12.02
2022-12-06T09:36:20.026Z,17.88
2022-12-06T09:38:51.791Z,14.55
2022-12-06T09:41:30.551Z,12.80
2022-12-06T09:44:10.363Z,9.88
2022-12-06T09:47:16.707Z,11.00
2022-12-06T09:49:49.217Z,9.52
2022-12-06T09:52:47.877Z,10.60
2022-12-06T09:55:35.979Z,8.38
2022-12-06T09:58:20.910Z,9.15
2022-12-06T10:00:54.092Z,9.30
2022-12-06T10:03:35.777Z,8.05
2022-12-06T10:08:51.814Z,7.45
2022-12-06T10:11:31.766Z,9.48
2022-12-06T10:14:26.991Z,10.70
2022-12-06T10:17:25.414Z,9.35
2022-12-06T10:20:29.456Z,11.68
2022-12-06T10:23:37.357Z,10.70
2022-12-06T10:26:29.706Z,11.65
2022-12-06T10:29:14.214Z,8.13
2022-12-06T10:32:01.095Z,11.00
2022-12-06T10:34:58.205Z,17.33
2022-12-06T10:37:46.195Z,11.00
2022-12-06T10:40:21.688Z,10.27
2022-12-06T10:42:55.961Z,12.38
2022-12-06T10:45:46.597Z,12.60
2022-12-06T10:48:21.743Z,9.25
2022-12-06T10:50:55.319Z,11.05
2022-12-06T10:53:28.380Z,9.60
2022-12-06T10:56:01.224Z,12.13
2022-12-06T10:59:24.022Z,21.05
2022-12-06T11:01:53.248Z,8.98
2022-12-06T11:04:26.287Z,9.00
2022-12-06T11:06:58.907Z,8.57
2022-12-06T11:09:40.645Z,9.02
2022-12-06T11:15:15.473Z,9.65
2022-12-06T11:17:47.902Z,12.18
2022-12-06T11:20:29.775Z,10.52
2022-12-06T11:23:06.662Z,14.13
2022-12-06T11:25:43.368Z,9.05
2022-12-06T11:28:24.727Z,10.35
2022-12-06T11:30:54.222Z,11.90
2022-12-06T11:33:26.266Z,13.20
2022-12-06T11:35:52.917Z,13.25
2022-12-06T11:38:19.578Z,14.93
2022-12-06T11:40:50.450Z,14.70
2022-12-06T11:43:27.248Z,10.90
2022-12-06T11:45:56.388Z,13.73
2022-12-06T11:48:26.180Z,13.90
2022-12-06T11:50:53.436Z,25.73
2022-12-06T11:53:31.051Z,14.07
2022-12-06T11:56:03.938Z,16.10
2022-12-06T11:58:42.240Z,16.60
2022-12-06T12:01:14.203Z,15.13
2022-12-06T12:03:44.113Z,16.55
2022-12-06T12:06:21.922Z,16.10
2022-12-06T12:08:58.338Z,12.73
2022-12-06T12:11:28.032Z,13.82
2022-12-06T12:13:59.384Z,15.23
2022-12-06T12:16:37.785Z,16.42
2022-12-06T12:19:22.001Z,14.88
2022-12-06T12:21:54.019Z,11.43
2022-12-06T12:25:17.260Z,12.30
2022-12-06T12:27:51.285Z,9.50
2022-12-06T12:30:25.499Z,19.17
2022-12-06T12:33:16.398Z,22.02
2022-12-06T12:35:46.233Z,18.00
2022-12-06T12:38:31.449Z,14.13
2022-12-06T12:41:18.621Z,11.70
2022-12-06T12:44:20.825Z,10.15
2022-12-06T12:46:49.292Z,10.57
2022-12-06T12:49:28.344Z,9.20
2022-12-06T12:51:55.533Z,11.27
2022-12-06T12:54:32.272Z,10.70
2022-12-06T12:57:02.371Z,8.45
2022-12-06T12:59:38.562Z,9.68
2022-12-06T13:02:27.239Z,7.63
2022-12-06T13:05:32.613Z,9.63
2022-12-06T13:07:50.725Z,6.38
2022-12-06T13:10:36.376Z,8.90
2022-12-06T13:13:10.751Z,11.52
2022-12-06T13:15:40.477Z,9.65
2022-12-06T13:18:19.188Z,6.47
2022-12-06T13:20:47.575Z,6.30
2022-12-06T13:23:19.000Z,9.30
2022-12-06T13:25:50.577Z,8.98
2022-12-06T13:30:49.365Z,7.40
2022-12-06T13:33:26.281Z,6.55
2022-12-06T13:36:09.286Z,6.43
2022-12-06T13:38:38.817Z,8.18
2022-12-06T13:41:15.098Z,7.50
2022-12-06T13:43:49.154Z,8.30
2022-12-06T13:46:26.398Z,6.30
2022-12-06T13:48:58.755Z,8.98
2022-12-06T13:51:31.149Z,6.32
2022-12-06T13:54:04.091Z,6.20
2022-12-06T13:56:33.664Z,7.95
2022-12-06T13:59:12.710Z,5.80
2022-12-06T14:01:47.139Z,7.63
2022-12-06T14:07:05.054Z,12.38
2022-12-06T14:09:44.386Z,7.05
2022-12-06T14:12:20.984Z,9.38
2022-12-06T14:15:01.936Z,8.75
2022-12-06T14:20:30.413Z,7.47
2022-12-06T14:22:57.162Z,8.10
2022-12-06T14:25:28.330Z,7.30
2022-12-06T14:28:04.043Z,8.40
2022-12-06T14:30:30.637Z,10.40
2022-12-06T14:32:58.887Z,13.25
2022-12-06T14:35:28.946Z,10.15
2022-12-06T14:37:59.478Z,10.52
2022-12-06T14:41:00.078Z,8.85
2022-12-06T14:43:30.098Z,7.75
2022-12-06T14:46:00.060Z,9.30
2022-12-06T14:48:27.089Z,10.15
2022-12-06T14:51:02.087Z,11.82
2022-12-06T14:53:36.669Z,8.82
2022-12-06T14:56:06.614Z,11.15
2022-12-06T14:58:51.917Z,9.10
2022-12-06T15:01:24.611Z,8.85
2022-12-06T15:03:57.863Z,11.57
2022-12-06T15:06:26.509Z,12.38
2022-12-06T15:08:59.235Z,9.73
2022-12-06T15:11:50.433Z,11.68
2022-12-06T15:14:18.481Z,12.43
2022-12-06T15:16:55.992Z,10.75
2022-12-06T15:19:22.940Z,11.35
2022-12-06T15:21:55.416Z,13.77
2022-12-06T15:24:24.389Z,10.68
2022-12-06T15:26:51.482Z,10.02
2022-12-06T15:29:18.255Z,11.27
2022-12-06T15:31:52.279Z,10.30
2022-12-06T15:34:29.158Z,13.27
2022-12-06T15:37:15.532Z,8.98
2022-12-06T15:39:44.277Z,11.02
2022-12-06T15:42:28.819Z,12.15
2022-12-06T15:44:55.360Z,9.88
2022-12-06T15:47:21.825Z,11.98
2022-12-06T15:49:51.306Z,11.73
2022-12-06T15:52:23.245Z,11.75
2022-12-06T15:54:50.434Z,17.88
2022-12-06T15:57:17.808Z,10.68
2022-12-06T15:59:44.436Z,8.57
2022-12-06T16:02:16.088Z,14.18
2022-12-06T16:04:43.960Z,14.07
2022-12-06T16:07:10.908Z,13.63
2022-12-06T16:09:37.914Z,9.57
2022-12-06T16:12:04.688Z,8.70
2022-12-06T16:14:31.162Z,10.50
2022-12-06T16:16:57.625Z,13.32
2022-12-06T16:19:24.063Z,12.40
2022-12-06T16:21:56.376Z,11.05
2022-12-06T16:24:23.216Z,11.98
2022-12-06T16:26:49.748Z,13.55
2022-12-06T16:29:25.211Z,13.98
2022-12-06T16:31:53.097Z,10.15
2022-12-06T16:34:20.056Z,12.65
2022-12-06T16:37:13.132Z,12.65
2022-12-06T16:39:39.767Z,12.88
2022-12-06T16:42:06.518Z,12.85
2022-12-06T16:44:33.220Z,15.05
2022-12-06T16:46:59.969Z,11.68
2022-12-06T16:49:46.519Z,11.95
2022-12-06T16:52:14.849Z,12.55
2022-12-06T16:54:42.284Z,11.75
2022-12-06T16:57:11.349Z,9.80
2022-12-06T16:59:38.080Z,10.90
2022-12-06T17:02:14.084Z,12.10
2022-12-06T17:04:40.916Z,13.38
2022-12-06T17:07:07.411Z,11.20
2022-12-06T17:09:33.949Z,11.98
2022-12-06T17:12:02.976Z,13.00
2022-12-06T17:14:30.268Z,11.32
2022-12-06T17:16:57.119Z,8.38
2022-12-06T17:19:28.165Z,9.45
2022-12-06T17:21:55.278Z,10.88
2022-12-06T17:24:22.941Z,7.43
2022-12-06T17:26:49.783Z,11.07
2022-12-06T17:29:17.455Z,8.10
2022-12-06T17:31:44.172Z,8.20
2022-12-06T17:34:13.606Z,8.88
2022-12-06T17:36:40.809Z,7.93
2022-12-06T17:39:08.367Z,9.52
2022-12-06T17:41:53.917Z,7.75
2022-12-06T17:44:21.326Z,7.47
2022-12-06T17:46:47.802Z,8.07
2022-12-06T17:49:17.435Z,8.48
2022-12-06T17:51:43.952Z,8.23
2022-12-06T17:54:10.755Z,13.63
2022-12-06T17:56:39.764Z,10.63
2022-12-06T17:59:08.811Z,11.18
2022-12-06T18:01:58.557Z,12.70
2022-12-06T18:04:22.795Z,11.60
2022-12-06T18:06:49.276Z,16.48
2022-12-06T18:09:15.830Z,14.63
2022-12-06T18:11:43.279Z,15.25
2022-12-06T18:14:12.309Z,17.00
2022-12-06T18:16:40.645Z,20.85
2022-12-06T18:19:15.639Z,20.05
2022-12-06T18:21:42.250Z,20.67
2022-12-06T18:24:30.577Z,19.10
2022-12-06T18:26:57.871Z,20.58
2022-12-06T18:29:24.567Z,20.38
2022-12-06T18:31:52.326Z,23.88
2022-12-06T18:34:19.286Z,21.17
2022-12-06T18:36:46.267Z,26.05
2022-12-06T18:39:17.143Z,27.88
2022-12-06T18:41:44.604Z,22.88
2022-12-06T18:44:12.430Z,25.05
2022-12-06T18:46:39.434Z,22.20
2022-12-06T18:49:06.687Z,20.30
2022-12-06T18:51:35.306Z,26.30
2022-12-06T18:54:04.904Z,33.72
2022-12-06T18:56:32.419Z,23.45
2022-12-06T18:59:00.466Z,25.08
2022-12-06T19:01:29.925Z,24.45
2022-12-06T19:03:59.603Z,27.02
2022-12-06T19:06:29.817Z,23.90
2022-12-06T19:09:01.563Z,24.92
2022-12-06T19:11:28.106Z,24.15
2022-12-06T19:13:59.474Z,25.77
2022-12-06T19:16:28.824Z,24.70
2022-12-06T19:18:57.188Z,23.05
2022-12-06T19:21:24.106Z,32.85
2022-12-06T19:23:55.635Z,30.85
2022-12-06T19:28:51.955Z,26.20
2022-12-06T19:31:19.753Z,26.40
2022-12-06T19:33:46.576Z,25.05
2022-12-06T19:36:31.415Z,28.52
2022-12-06T19:39:03.651Z,30.17
2022-12-06T19:41:30.528Z,25.08
2022-12-06T19:44:15.267Z,24.80
2022-12-06T19:46:43.943Z,25.00
2022-12-06T19:49:11.631Z,27.15
2022-12-06T19:51:40.352Z,39.28
2022-12-06T19:54:08.091Z,27.40
2022-12-06T19:56:35.337Z,23.58
2022-12-06T19:59:11.245Z,28.17
2022-12-06T20:01:44.238Z,31.33
2022-12-06T20:04:22.698Z,30.27
2022-12-06T20:06:50.577Z,29.80
2022-12-06T20:09:18.699Z,31.33
2022-12-06T20:12:00.981Z,27.95
2022-12-06T20:14:36.342Z,28.05
2022-12-06T20:17:05.936Z,26.85
2022-12-06T20:19:33.537Z,29.48
2022-12-06T20:21:59.957Z,29.77
2022-12-06T20:24:26.647Z,30.73
2022-12-06T20:26:54.761Z,30.10
2022-12-06T20:29:22.172Z,28.25
2022-12-06T20:31:59.632Z,28.38
2022-12-06T20:34:29.432Z,23.88
2022-12-06T20:37:08.346Z,25.52
2022-12-06T20:39:58.214Z,23.98
2022-12-06T20:42:37.720Z,25.40
2022-12-06T20:45:04.387Z,25.00
2022-12-06T20:47:30.915Z,24.00
2022-12-06T20:49:57.372Z,26.08
2022-12-06T20:52:24.638Z,24.88
2022-12-06T20:54:51.569Z,29.42
2022-12-06T20:57:18.086Z,24.02
2022-12-06T20:59:44.530Z,21.60
2022-12-06T21:02:12.746Z,20.35
2022-12-06T21:04:40.212Z,20.50
2022-12-06T21:07:06.759Z,17.80
2022-12-06T21:09:34.417Z,19.50
2022-12-06T21:12:00.840Z,22.88
2022-12-06T21:14:27.228Z,16.27
2022-12-06T21:16:55.213Z,16.92
2022-12-06T21:19:21.926Z,14.15
2022-12-06T21:21:51.356Z,14.93
2022-12-06T21:24:20.051Z,11.65
2022-12-06T21:26:47.972Z,9.25
2022-12-06T21:29:16.907Z,10.70
2022-12-06T21:31:43.668Z,7.60
2022-12-06T21:34:11.763Z,8.23
2022-12-06T21:36:38.912Z,7.30
2022-12-06T21:39:05.689Z,9.20
2022-12-06T21:41:32.581Z,7.28
2022-12-06T21:44:02.205Z,6.07
2022-12-06T21:46:28.715Z,6.90
2022-12-06T21:48:57.775Z,6.00
2022-12-06T21:51:27.618Z,6.50
2022-12-06T21:53:54.570Z,7.25
2022-12-06T21:56:24.334Z,6.78
2022-12-06T21:58:50.773Z,5.15
2022-12-06T22:01:23.933Z,4.30
2022-12-06T22:03:52.821Z,8.02
2022-12-06T22:06:20.016Z,7.72
2022-12-06T22:08:47.426Z,6.10
2022-12-06T22:11:17.488Z,6.00
2022-12-06T22:13:44.376Z,7.85
2022-12-06T22:16:11.948Z,8.80
2022-12-06T22:18:44.735Z,8.23
2022-12-06T22:21:16.720Z,10.07
2022-12-06T22:23:43.567Z,11.18
2022-12-06T22:26:14.083Z,11.35
2022-12-06T22:28:40.542Z,13.95
2022-12-06T22:31:20.953Z,13.57
2022-12-06T22:33:48.678Z,15.75
2022-12-06T22:36:16.145Z,15.82
2022-12-06T22:38:43.508Z,19.45
2022-12-06T22:41:10.911Z,17.95
2022-12-06T22:43:37.653Z,20.10
2022-12-06T22:46:09.734Z,20.48
2022-12-06T22:48:37.112Z,21.65
2022-12-06T22:51:16.843Z,21.52
2022-12-06T22:53:46.015Z,20.73
2022-12-06T22:56:15.458Z,21.83
2022-12-06T22:58:42.131Z,21.38
2022-12-06T23:01:15.861Z,24.27
2022-12-06T23:03:44.447Z,23.15
2022-12-06T23:06:10.985Z,23.05
2022-12-06T23:08:37.775Z,23.85
2022-12-06T23:11:05.860Z,30.13
2022-12-06T23:13:32.849Z,29.45
2022-12-06T23:16:01.571Z,28.38
2022-12-06T23:18:28.757Z,28.23
2022-12-06T23:21:12.663Z,25.85
2022-12-06T23:23:41.452Z,27.15
2022-12-06T23:26:11.896Z,24.33
2022-12-06T23:28:39.213Z,27.80
2022-12-06T23:31:11.273Z,25.48
2022-12-06T23:33:37.877Z,25.92
2022-12-06T23:36:18.553Z,23.13
2022-12-06T23:38:45.143Z,22.02
2022-12-06T23:41:14.539Z,23.02
2022-12-06T23:43:41.512Z,20.75
2022-12-06T23:46:10.724Z,23.05
2022-12-06T23:48:38.158Z,21.77
2022-12-06T23:51:11.544Z,23.67
2022-12-06T23:53:38.835Z,22.38
2022-12-06T23:56:10.961Z,24.52
2022-12-06T23:58:37.938Z,21.63
